sensor_id;sensor_type;location;lat;lon;timestamp;pressure;altitude;pressure_sealevel;temperature;humidity
70684;BME280;58263;48.146;11.440;2023-07-31T00:01:01;95831.53;;;17.39;64.38
70684;BME280;58263;48.146;11.440;2023-07-31T00:03:26;95838.56;;;17.24;65.45
70684;BME280;58263;48.146;11.440;2023-07-31T00:05:51;95834.50;;;17.22;65.14
70684;BME280;58263;48.146;11.440;2023-07-31T00:08:17;95831.78;;;17.17;65.46
70684;BME280;58263;48.146;11.440;2023-07-31T00:10:42;95820.94;;;17.17;65.45
70684;BME280;58263;48.146;11.440;2023-07-31T00:13:07;95830.72;;;17.13;65.63
70684;BME280;58263;48.146;11.440;2023-07-31T00:15:33;95825.53;;;17.16;65.83
70684;BME280;58263;48.146;11.440;2023-07-31T00:17:58;95834.47;;;17.06;66.81
70684;BME280;58263;48.146;11.440;2023-07-31T00:20:23;95827.72;;;17.14;66.10
70684;BME280;58263;48.146;11.440;2023-07-31T00:22:48;95829.88;;;17.12;66.05
70684;BME280;58263;48.146;11.440;2023-07-31T00:25:14;95826.63;;;17.05;66.80
70684;BME280;58263;48.146;11.440;2023-07-31T00:27:39;95820.94;;;17.17;65.74
70684;BME280;58263;48.146;11.440;2023-07-31T00:30:09;95815.78;;;17.10;67.07
70684;BME280;58263;48.146;11.440;2023-07-31T00:32:35;95819.03;;;17.02;66.57
70684;BME280;58263;48.146;11.440;2023-07-31T00:35:00;95819.56;;;17.04;66.63
70684;BME280;58263;48.146;11.440;2023-07-31T00:37:26;95823.66;;;17.12;66.42
70684;BME280;58263;48.146;11.440;2023-07-31T00:39:52;95806.53;;;16.90;66.60
70684;BME280;58263;48.146;11.440;2023-07-31T00:42:17;95810.91;;;16.97;67.63
70684;BME280;58263;48.146;11.440;2023-07-31T00:44:42;95807.59;;;16.84;67.30
70684;BME280;58263;48.146;11.440;2023-07-31T00:47:08;95815.44;;;16.81;66.93
70684;BME280;58263;48.146;11.440;2023-07-31T00:49:33;95813.56;;;16.76;67.16
70684;BME280;58263;48.146;11.440;2023-07-31T00:51:59;95816.81;;;16.83;67.69
70684;BME280;58263;48.146;11.440;2023-07-31T00:54:24;95808.16;;;16.81;67.44
70684;BME280;58263;48.146;11.440;2023-07-31T00:56:50;95798.63;;;16.68;67.20
70684;BME280;58263;48.146;11.440;2023-07-31T00:59:17;95811.91;;;16.75;68.37
70684;BME280;58263;48.146;11.440;2023-07-31T01:01:44;95800.00;;;16.76;67.92
70684;BME280;58263;48.146;11.440;2023-07-31T01:04:10;95801.63;;;16.72;68.23
70684;BME280;58263;48.146;11.440;2023-07-31T01:06:42;95804.31;;;16.62;68.52
70684;BME280;58263;48.146;11.440;2023-07-31T01:11:52;95796.19;;;16.67;68.70
70684;BME280;58263;48.146;11.440;2023-07-31T01:14:18;95805.13;;;16.62;69.37
70684;BME280;58263;48.146;11.440;2023-07-31T01:16:43;95799.44;;;16.64;69.83
70684;BME280;58263;48.146;11.440;2023-07-31T01:19:10;95798.38;;;16.65;69.27
70684;BME280;58263;48.146;11.440;2023-07-31T01:24:22;95787.28;;;16.82;69.31
70684;BME280;58263;48.146;11.440;2023-07-31T01:26:56;95784.56;;;16.77;69.42
70684;BME280;58263;48.146;11.440;2023-07-31T01:29:28;95785.38;;;16.77;69.48
70684;BME280;58263;48.146;11.440;2023-07-31T01:32:01;95792.41;;;16.68;70.06
70684;BME280;58263;48.146;11.440;2023-07-31T01:34:27;95786.16;;;16.67;69.16
70684;BME280;58263;48.146;11.440;2023-07-31T01:36:53;95778.31;;;16.71;69.47
70684;BME280;58263;48.146;11.440;2023-07-31T01:39:20;95778.84;;;16.63;70.17
70684;BME280;58263;48.146;11.440;2023-07-31T01:41:45;95772.38;;;16.64;69.90
70684;BME280;58263;48.146;11.440;2023-07-31T01:44:11;95772.91;;;16.61;70.84
70684;BME280;58263;48.146;11.440;2023-07-31T01:46:36;95773.47;;;16.73;70.15
70684;BME280;58263;48.146;11.440;2023-07-31T01:49:02;95777.78;;;16.64;69.81
70684;BME280;58263;48.146;11.440;2023-07-31T01:51:27;95763.41;;;16.68;69.64
70684;BME280;58263;48.146;11.440;2023-07-31T01:53:52;95771.03;;;16.71;69.60
70684;BME280;58263;48.146;11.440;2023-07-31T01:56:17;95772.63;;;16.62;70.32
70684;BME280;58263;48.146;11.440;2023-07-31T01:58:43;95772.38;;;16.64;70.26
70684;BME280;58263;48.146;11.440;2023-07-31T02:01:08;95774.25;;;16.63;69.42
70684;BME280;58263;48.146;11.440;2023-07-31T02:03:33;95778.84;;;16.63;69.93
70684;BME280;58263;48.146;11.440;2023-07-31T02:05:59;95776.72;;;16.65;69.58
70684;BME280;58263;48.146;11.440;2023-07-31T02:08:24;95774.22;;;16.53;69.80
70684;BME280;58263;48.146;11.440;2023-07-31T02:10:49;95767.47;;;16.66;70.34
70684;BME280;58263;48.146;11.440;2023-07-31T02:13:15;95757.75;;;16.65;69.62
70684;BME280;58263;48.146;11.440;2023-07-31T02:15:40;95753.94;;;16.71;69.76
70684;BME280;58263;48.146;11.440;2023-07-31T02:18:05;95752.84;;;16.56;70.38
70684;BME280;58263;48.146;11.440;2023-07-31T02:20:34;95756.63;;;16.55;70.30
70684;BME280;58263;48.146;11.440;2023-07-31T02:22:59;95751.47;;;16.59;69.33
70684;BME280;58263;48.146;11.440;2023-07-31T02:25:24;95759.88;;;16.47;69.98
70684;BME280;58263;48.146;11.440;2023-07-31T02:27:49;95749.28;;;16.35;70.02
70684;BME280;58263;48.146;11.440;2023-07-31T02:30:15;95741.44;;;16.39;69.79
70684;BME280;58263;48.146;11.440;2023-07-31T02:32:40;95742.28;;;16.45;69.96
70684;BME280;58263;48.146;11.440;2023-07-31T02:35:06;95732.53;;;16.54;69.62
70684;BME280;58263;48.146;11.440;2023-07-31T02:37:31;95732.50;;;16.44;69.45
70684;BME280;58263;48.146;11.440;2023-07-31T02:39:56;95730.88;;;16.43;69.75
70684;BME280;58263;48.146;11.440;2023-07-31T02:45:43;95727.59;;;16.30;70.27
70684;BME280;58263;48.146;11.440;2023-07-31T02:48:09;95730.84;;;16.22;70.93
70684;BME280;58263;48.146;11.440;2023-07-31T02:50:34;95720.31;;;16.26;71.33
70684;BME280;58263;48.146;11.440;2023-07-31T02:52:59;95730.00;;;16.16;70.82
70684;BME280;58263;48.146;11.440;2023-07-31T02:55:25;95725.94;;;16.14;71.81
70684;BME280;58263;48.146;11.440;2023-07-31T02:57:50;95725.38;;;16.07;71.69
70684;BME280;58263;48.146;11.440;2023-07-31T03:00:17;95717.81;;;16.14;72.28
70684;BME280;58263;48.146;11.440;2023-07-31T03:02:42;95724.28;;;16.02;72.08
70684;BME280;58263;48.146;11.440;2023-07-31T03:05:07;95721.84;;;16.01;72.23
70684;BME280;58263;48.146;11.440;2023-07-31T03:07:33;95712.13;;;16.05;72.08
70684;BME280;58263;48.146;11.440;2023-07-31T03:09:58;95723.47;;;16.07;71.69
70684;BME280;58263;48.146;11.440;2023-07-31T03:12:23;95712.06;;;15.89;72.94
70684;BME280;58263;48.146;11.440;2023-07-31T03:14:49;95717.22;;;15.86;72.69
70684;BME280;58263;48.146;11.440;2023-07-31T03:17:15;95718.19;;;15.69;73.62
70684;BME280;58263;48.146;11.440;2023-07-31T03:19:40;95720.06;;;15.64;74.20
70684;BME280;58263;48.146;11.440;2023-07-31T03:22:05;95720.06;;;15.64;73.94
70684;BME280;58263;48.146;11.440;2023-07-31T03:24:31;95716.25;;;15.65;74.18
70684;BME280;58263;48.146;11.440;2023-07-31T03:26:56;95719.78;;;15.70;73.82
70684;BME280;58263;48.146;11.440;2023-07-31T03:29:21;95715.16;;;15.61;74.58
70684;BME280;58263;48.146;11.440;2023-07-31T03:31:46;95728.41;;;15.57;74.73
70684;BME280;58263;48.146;11.440;2023-07-31T03:34:12;95726.81;;;15.61;75.28
70684;BME280;58263;48.146;11.440;2023-07-31T03:36:37;95735.19;;;15.65;75.32
70684;BME280;58263;48.146;11.440;2023-07-31T03:39:02;95726.03;;;15.71;74.84
70684;BME280;58263;48.146;11.440;2023-07-31T03:41:28;95726.81;;;15.61;75.02
70684;BME280;58263;48.146;11.440;2023-07-31T03:43:53;95731.38;;;15.61;75.83
70684;BME280;58263;48.146;11.440;2023-07-31T03:46:21;95730.88;;;15.64;75.04
70684;BME280;58263;48.146;11.440;2023-07-31T03:48:47;95728.72;;;15.66;75.12
70684;BME280;58263;48.146;11.440;2023-07-31T03:51:12;95731.34;;;15.55;75.07
70684;BME280;58263;48.146;11.440;2023-07-31T03:53:37;95732.22;;;15.66;75.23
70684;BME280;58263;48.146;11.440;2023-07-31T03:56:03;95734.66;;;15.63;74.87
70684;BME280;58263;48.146;11.440;2023-07-31T03:58:28;95725.47;;;15.69;74.90
70684;BME280;58263;48.146;11.440;2023-07-31T04:00:53;95727.59;;;15.62;75.78
70684;BME280;58263;48.146;11.440;2023-07-31T04:03:19;95728.19;;;15.64;75.24
70684;BME280;58263;48.146;11.440;2023-07-31T04:05:44;95716.81;;;15.67;74.85
70684;BME280;58263;48.146;11.440;2023-07-31T04:08:10;95725.47;;;15.69;75.07
70684;BME280;58263;48.146;11.440;2023-07-31T04:10:35;95719.00;;;15.70;75.54
70684;BME280;58263;48.146;11.440;2023-07-31T04:13:00;95718.97;;;15.65;75.23
70684;BME280;58263;48.146;11.440;2023-07-31T04:15:26;95718.41;;;15.58;75.54
70684;BME280;58263;48.146;11.440;2023-07-31T04:17:51;95714.06;;;15.57;75.80
70684;BME280;58263;48.146;11.440;2023-07-31T04:20:17;95716.22;;;15.54;75.74
70684;BME280;58263;48.146;11.440;2023-07-31T04:22:42;95729.47;;;15.56;76.16
70684;BME280;58263;48.146;11.440;2023-07-31T04:25:07;95720.31;;;15.62;75.79
70684;BME280;58263;48.146;11.440;2023-07-31T04:27:33;95715.75;;;15.68;75.89
70684;BME280;58263;48.146;11.440;2023-07-31T04:29:58;95710.34;;;15.68;75.63
70684;BME280;58263;48.146;11.440;2023-07-31T04:32:23;95721.69;;;15.70;75.89
70684;BME280;58263;48.146;11.440;2023-07-31T04:34:48;95716.00;;;15.66;76.23
70684;BME280;58263;48.146;11.440;2023-07-31T04:37:14;95716.25;;;15.65;75.73
70684;BME280;58263;48.146;11.440;2023-07-31T04:39:39;95715.47;;;15.64;76.28
70684;BME280;58263;48.146;11.440;2023-07-31T04:42:04;95710.06;;;15.69;76.80
70684;BME280;58263;48.146;11.440;2023-07-31T04:44:30;95717.94;;;15.76;76.42
70684;BME280;58263;48.146;11.440;2023-07-31T04:46:55;95716.84;;;15.77;76.08
70684;BME280;58263;48.146;11.440;2023-07-31T04:49:20;95713.66;;;15.80;75.38
70684;BME280;58263;48.146;11.440;2023-07-31T04:51:46;95706.91;;;15.83;76.69
70684;BME280;58263;48.146;11.440;2023-07-31T04:54:11;95703.94;;;15.84;74.91
70684;BME280;58263;48.146;11.440;2023-07-31T04:56:40;95704.25;;;15.93;75.56
70684;BME280;58263;48.146;11.440;2023-07-31T04:59:05;95709.66;;;15.98;75.50
70684;BME280;58263;48.146;11.440;2023-07-31T05:01:30;95707.75;;;15.94;75.19
70684;BME280;58263;48.146;11.440;2023-07-31T05:03:55;95705.06;;;15.99;74.96
70684;BME280;58263;48.146;11.440;2023-07-31T05:06:21;95709.94;;;16.02;74.62
70684;BME280;58263;48.146;11.440;2023-07-31T05:08:46;95707.84;;;16.30;74.38
70684;BME280;58263;48.146;11.440;2023-07-31T05:11:12;95717.09;;;16.49;73.48
70684;BME280;58263;48.146;11.440;2023-07-31T05:13:37;95708.44;;;16.63;73.10
70684;BME280;58263;48.146;11.440;2023-07-31T05:16:03;95710.63;;;16.61;72.60
70684;BME280;58263;48.146;11.440;2023-07-31T05:18:28;95715.53;;;16.89;72.18
70684;BME280;58263;48.146;11.440;2023-07-31T05:20:53;95703.88;;;17.04;71.58
70684;BME280;58263;48.146;11.440;2023-07-31T05:23:19;95713.34;;;17.02;71.20
70684;BME280;58263;48.146;11.440;2023-07-31T05:25:44;95702.47;;;17.17;69.97
70684;BME280;58263;48.146;11.440;2023-07-31T05:28:09;95710.28;;;17.39;69.86
70684;BME280;58263;48.146;11.440;2023-07-31T05:30:34;95701.06;;;17.51;69.38
70684;BME280;58263;48.146;11.440;2023-07-31T05:33:00;95702.94;;;17.55;68.56
70684;BME280;58263;48.146;11.440;2023-07-31T05:35:25;95699.94;;;17.67;67.69
70684;BME280;58263;48.146;11.440;2023-07-31T05:37:50;95703.94;;;17.75;67.52
70684;BME280;58263;48.146;11.440;2023-07-31T05:40:16;95699.34;;;17.81;67.01
70684;BME280;58263;48.146;11.440;2023-07-31T05:42:41;95703.94;;;17.75;66.81
70684;BME280;58263;48.146;11.440;2023-07-31T05:45:07;95706.91;;;17.84;66.36
70684;BME280;58263;48.146;11.440;2023-07-31T05:47:33;95704.47;;;17.87;65.33
70684;BME280;58263;48.146;11.440;2023-07-31T05:49:58;95709.59;;;17.94;65.97
70684;BME280;58263;48.146;11.440;2023-07-31T05:52:24;95699.28;;;17.91;64.92
70684;BME280;58263;48.146;11.440;2023-07-31T05:54:49;95703.91;;;17.96;64.90
70684;BME280;58263;48.146;11.440;2023-07-31T05:57:14;95704.41;;;18.03;64.20
70684;BME280;58263;48.146;11.440;2023-07-31T05:59:39;95700.28;;;18.16;64.15
70684;BME280;58263;48.146;11.440;2023-07-31T06:02:05;95702.69;;;18.22;64.00
70684;BME280;58263;48.146;11.440;2023-07-31T06:04:31;95701.34;;;18.20;64.12
70684;BME280;58263;48.146;11.440;2023-07-31T06:06:56;95706.84;;;18.54;64.02
70684;BME280;58263;48.146;11.440;2023-07-31T06:09:21;95706.72;;;18.70;62.69
70684;BME280;58263;48.146;11.440;2023-07-31T06:11:46;95702.63;;;18.72;61.79
70684;BME280;58263;48.146;11.440;2023-07-31T06:14:12;95707.97;;;18.88;61.14
70684;BME280;58263;48.146;11.440;2023-07-31T06:16:37;95707.13;;;18.87;61.14
70684;BME280;58263;48.146;11.440;2023-07-31T06:19:03;95709.16;;;19.06;60.87
70684;BME280;58263;48.146;11.440;2023-07-31T06:21:28;95708.34;;;19.11;61.03
70684;BME280;58263;48.146;11.440;2023-07-31T06:23:54;95712.47;;;19.03;61.13
70684;BME280;58263;48.146;11.440;2023-07-31T06:26:20;95705.06;;;19.08;60.01
70684;BME280;58263;48.146;11.440;2023-07-31T06:28:45;95709.47;;;19.04;60.81
70684;BME280;58263;48.146;11.440;2023-07-31T06:31:10;95708.41;;;19.00;61.04
70684;BME280;58263;48.146;11.440;2023-07-31T06:33:36;95711.34;;;19.09;61.03
70684;BME280;58263;48.146;11.440;2023-07-31T06:36:01;95709.47;;;19.04;60.29
70684;BME280;58263;48.146;11.440;2023-07-31T06:38:26;95711.81;;;19.16;60.55
70684;BME280;58263;48.146;11.440;2023-07-31T06:40:52;95707.38;;;19.25;60.17
70684;BME280;58263;48.146;11.440;2023-07-31T06:43:18;95707.38;;;19.25;60.02
70684;BME280;58263;48.146;11.440;2023-07-31T06:45:43;95708.25;;;19.45;60.37
70684;BME280;58263;48.146;11.440;2023-07-31T06:48:12;95706.00;;;19.52;60.36
70684;BME280;58263;48.146;11.440;2023-07-31T06:50:38;95707.47;;;19.45;59.92
70684;BME280;58263;48.146;11.440;2023-07-31T06:53:03;95700.38;;;19.43;59.27
70684;BME280;58263;48.146;11.440;2023-07-31T06:55:28;95691.94;;;19.45;58.85
70684;BME280;58263;48.146;11.440;2023-07-31T06:57:54;95694.81;;;19.78;58.12
70684;BME280;58263;48.146;11.440;2023-07-31T07:00:22;95701.66;;;19.75;58.56
70684;BME280;58263;48.146;11.440;2023-07-31T07:02:48;95707.34;;;19.79;58.27
70684;BME280;58263;48.146;11.440;2023-07-31T07:05:15;95705.03;;;19.91;59.01
70684;BME280;58263;48.146;11.440;2023-07-31T07:07:41;95709.03;;;19.75;58.11
70684;BME280;58263;48.146;11.440;2023-07-31T07:10:07;95697.41;;;19.93;59.30
70684;BME280;58263;48.146;11.440;2023-07-31T07:12:33;95709.84;;;20.00;58.35
70684;BME280;58263;48.146;11.440;2023-07-31T07:14:59;95698.91;;;19.81;59.47
70684;BME280;58263;48.146;11.440;2023-07-31T07:17:25;95699.09;;;19.89;59.18
70684;BME280;58263;48.146;11.440;2023-07-31T07:19:50;95701.34;;;19.82;58.11
70684;BME280;58263;48.146;11.440;2023-07-31T07:22:15;95696.47;;;19.79;57.85
70684;BME280;58263;48.146;11.440;2023-07-31T07:24:41;95699.50;;;20.02;57.48
70684;BME280;58263;48.146;11.440;2023-07-31T07:27:07;95697.84;;;20.01;57.71
70684;BME280;58263;48.146;11.440;2023-07-31T07:29:33;95693.91;;;20.12;57.44
70684;BME280;58263;48.146;11.440;2023-07-31T07:31:59;95694.88;;;20.40;56.86
70684;BME280;58263;48.146;11.440;2023-07-31T07:34:26;95693.91;;;20.50;57.29
70684;BME280;58263;48.146;11.440;2023-07-31T07:36:52;95684.50;;;20.62;55.72
70684;BME280;58263;48.146;11.440;2023-07-31T07:39:17;95679.25;;;20.84;56.17
70684;BME280;58263;48.146;11.440;2023-07-31T07:41:42;95678.63;;;20.87;55.91
70684;BME280;58263;48.146;11.440;2023-07-31T07:44:08;95674.47;;;20.76;55.63
70684;BME280;58263;48.146;11.440;2023-07-31T07:46:33;95669.66;;;20.87;55.33
70684;BME280;58263;48.146;11.440;2023-07-31T07:48:58;95668.50;;;20.55;54.97
70684;BME280;58263;48.146;11.440;2023-07-31T07:51:24;95663.47;;;20.62;55.13
70684;BME280;58263;48.146;11.440;2023-07-31T07:53:49;95663.19;;;20.83;55.20
70684;BME280;58263;48.146;11.440;2023-07-31T07:56:14;95660.34;;;20.74;55.33
70684;BME280;58263;48.146;11.440;2023-07-31T07:58:39;95650.50;;;21.06;54.92
70684;BME280;58263;48.146;11.440;2023-07-31T08:01:05;95654.41;;;21.33;53.97
70684;BME280;58263;48.146;11.440;2023-07-31T08:03:30;95648.25;;;21.41;53.04
70684;BME280;58263;48.146;11.440;2023-07-31T08:05:59;95647.47;;;21.82;52.80
70684;BME280;58263;48.146;11.440;2023-07-31T08:08:24;95646.59;;;22.09;51.88
70684;BME280;58263;48.146;11.440;2023-07-31T08:10:50;95649.84;;;22.48;51.49
70684;BME280;58263;48.146;11.440;2023-07-31T08:13:15;95647.16;;;22.34;50.30
70684;BME280;58263;48.146;11.440;2023-07-31T08:15:41;95657.38;;;22.28;49.84
70684;BME280;58263;48.146;11.440;2023-07-31T08:18:06;95650.25;;;22.55;49.66
70684;BME280;58263;48.146;11.440;2023-07-31T08:20:32;95658.78;;;22.40;48.20
70684;BME280;58263;48.146;11.440;2023-07-31T08:22:57;95651.84;;;22.56;47.80
70684;BME280;58263;48.146;11.440;2023-07-31T08:25:23;95660.50;;;22.72;48.54
70684;BME280;58263;48.146;11.440;2023-07-31T08:27:48;95660.38;;;23.00;47.51
70684;BME280;58263;48.146;11.440;2023-07-31T08:30:13;95664.66;;;22.70;47.56
70684;BME280;58263;48.146;11.440;2023-07-31T08:32:39;95660.78;;;22.48;47.35
70684;BME280;58263;48.146;11.440;2023-07-31T08:35:04;95659.84;;;22.16;49.01
70684;BME280;58263;48.146;11.440;2023-07-31T08:37:29;95652.31;;;22.36;48.33
70684;BME280;58263;48.146;11.440;2023-07-31T08:39:55;95656.47;;;22.47;49.25
70684;BME280;58263;48.146;11.440;2023-07-31T08:42:20;95647.88;;;22.26;48.31
70684;BME280;58263;48.146;11.440;2023-07-31T08:44:46;95638.56;;;22.41;49.38
70684;BME280;58263;48.146;11.440;2023-07-31T08:47:12;95644.25;;;22.17;49.01
70684;BME280;58263;48.146;11.440;2023-07-31T08:49:38;95644.63;;;21.87;49.58
70684;BME280;58263;48.146;11.440;2023-07-31T08:52:04;95651.09;;;21.91;49.22
70684;BME280;58263;48.146;11.440;2023-07-31T08:54:30;95651.09;;;21.91;51.20
70684;BME280;58263;48.146;11.440;2023-07-31T08:56:56;95646.63;;;21.95;49.76
70684;BME280;58263;48.146;11.440;2023-07-31T08:59:22;95654.19;;;22.12;49.35
70684;BME280;58263;48.146;11.440;2023-07-31T09:01:50;95650.69;;;22.49;49.60
70684;BME280;58263;48.146;11.440;2023-07-31T09:04:19;95653.38;;;22.85;48.16
70684;BME280;58263;48.146;11.440;2023-07-31T09:06:45;95651.19;;;22.73;47.28
70684;BME280;58263;48.146;11.440;2023-07-31T09:09:12;95646.00;;;23.49;47.31
70684;BME280;58263;48.146;11.440;2023-07-31T09:11:37;95644.81;;;23.41;47.41
70684;BME280;58263;48.146;11.440;2023-07-31T09:14:03;95648.00;;;23.66;46.91
70684;BME280;58263;48.146;11.440;2023-07-31T09:16:34;95641.84;;;24.00;46.02
70684;BME280;58263;48.146;11.440;2023-07-31T09:18:59;95632.31;;;23.98;45.47
70684;BME280;58263;48.146;11.440;2023-07-31T09:21:27;95634.97;;;23.80;44.90
70684;BME280;58263;48.146;11.440;2023-07-31T09:23:53;95621.78;;;23.82;44.97
70684;BME280;58263;48.146;11.440;2023-07-31T09:26:33;95638.97;;;24.40;45.35
70684;BME280;58263;48.146;11.440;2023-07-31T09:28:59;95626.56;;;24.52;44.20
70684;BME280;58263;48.146;11.440;2023-07-31T09:31:41;95633.00;;;24.82;44.65
70684;BME280;58263;48.146;11.440;2023-07-31T09:34:07;95622.84;;;24.39;43.07
70684;BME280;58263;48.146;11.440;2023-07-31T09:36:32;95623.31;;;24.76;44.03
70684;BME280;58263;48.146;11.440;2023-07-31T09:39:09;95627.03;;;24.80;43.71
70684;BME280;58263;48.146;11.440;2023-07-31T09:41:39;95626.88;;;24.85;43.96
70684;BME280;58263;48.146;11.440;2023-07-31T09:44:05;95620.41;;;24.90;42.52
70684;BME280;58263;48.146;11.440;2023-07-31T09:46:30;95606.94;;;25.14;41.59
70684;BME280;58263;48.146;11.440;2023-07-31T09:49:06;95609.34;;;25.34;41.91
70684;BME280;58263;48.146;11.440;2023-07-31T09:51:32;95605.59;;;25.77;42.43
70684;BME280;58263;48.146;11.440;2023-07-31T09:54:13;95604.16;;;26.22;41.57
70684;BME280;58263;48.146;11.440;2023-07-31T09:56:44;95601.78;;;25.90;40.76
70684;BME280;58263;48.146;11.440;2023-07-31T09:59:16;95590.59;;;25.95;40.55
70684;BME280;58263;48.146;11.440;2023-07-31T10:01:42;95590.63;;;26.38;39.03
70684;BME280;58263;48.146;11.440;2023-07-31T10:04:10;95588.75;;;26.29;39.02
70684;BME280;58263;48.146;11.440;2023-07-31T10:06:36;95593.88;;;26.40;40.06
70684;BME280;58263;48.146;11.440;2023-07-31T10:09:05;95596.34;;;25.81;38.93
70684;BME280;58263;48.146;11.440;2023-07-31T10:11:34;95581.94;;;25.85;39.10
70684;BME280;58263;48.146;11.440;2023-07-31T10:14:03;95565.75;;;26.68;39.25
70684;BME280;58263;48.146;11.440;2023-07-31T10:16:30;95560.25;;;26.68;38.22
70684;BME280;58263;48.146;11.440;2023-07-31T10:18:56;95559.03;;;26.23;38.13
70684;BME280;58263;48.146;11.440;2023-07-31T10:21:22;95549.25;;;26.89;37.27
70684;BME280;58263;48.146;11.440;2023-07-31T10:23:47;95551.47;;;26.53;39.66
70684;BME280;58263;48.146;11.440;2023-07-31T10:26:14;95542.97;;;26.46;39.22
70684;BME280;58263;48.146;11.440;2023-07-31T10:28:40;95546.19;;;27.15;37.96
70684;BME280;58263;48.146;11.440;2023-07-31T10:31:06;95551.59;;;27.36;36.75
70684;BME280;58263;48.146;11.440;2023-07-31T10:33:31;95552.88;;;27.39;36.37
70684;BME280;58263;48.146;11.440;2023-07-31T10:36:22;95535.81;;;28.11;35.01
70684;BME280;58263;48.146;11.440;2023-07-31T10:38:51;95541.25;;;28.92;35.04
70684;BME280;58263;48.146;11.440;2023-07-31T10:41:16;95555.13;;;28.11;35.53
70684;BME280;58263;48.146;11.440;2023-07-31T10:43:42;95552.59;;;27.93;36.40
70684;BME280;58263;48.146;11.440;2023-07-31T10:46:09;95548.38;;;27.22;36.07
70684;BME280;58263;48.146;11.440;2023-07-31T10:48:36;95544.31;;;27.07;36.98
70684;BME280;58263;48.146;11.440;2023-07-31T10:51:09;95545.59;;;27.22;37.51
70684;BME280;58263;48.146;11.440;2023-07-31T10:53:36;95545.47;;;27.18;37.40
70684;BME280;58263;48.146;11.440;2023-07-31T10:56:02;95542.94;;;28.12;35.01
70684;BME280;58263;48.146;11.440;2023-07-31T10:58:29;95532.50;;;28.05;35.09
70684;BME280;58263;48.146;11.440;2023-07-31T11:00:58;95527.25;;;30.00;31.25
70684;BME280;58263;48.146;11.440;2023-07-31T11:03:40;95521.28;;;28.83;32.22
70684;BME280;58263;48.146;11.440;2023-07-31T11:06:06;95525.09;;;31.11;30.14
70684;BME280;58263;48.146;11.440;2023-07-31T11:08:34;95508.44;;;31.08;30.63
70684;BME280;58263;48.146;11.440;2023-07-31T11:13:28;95515.81;;;30.57;30.67
70684;BME280;58263;48.146;11.440;2023-07-31T11:15:53;95512.22;;;31.99;29.00
70684;BME280;58263;48.146;11.440;2023-07-31T11:18:19;95513.44;;;32.02;29.59
70684;BME280;58263;48.146;11.440;2023-07-31T11:20:44;95513.75;;;33.33;27.00
70684;BME280;58263;48.146;11.440;2023-07-31T11:23:11;95498.00;;;34.14;25.90
70684;BME280;58263;48.146;11.440;2023-07-31T11:25:37;95496.88;;;33.63;26.91
70684;BME280;58263;48.146;11.440;2023-07-31T11:28:07;95492.44;;;34.18;26.99
70684;BME280;58263;48.146;11.440;2023-07-31T11:30:33;95489.78;;;34.43;25.67
70684;BME280;58263;48.146;11.440;2023-07-31T11:33:01;95484.00;;;35.39;24.43
70684;BME280;58263;48.146;11.440;2023-07-31T11:35:28;95481.88;;;36.15;23.96
70684;BME280;58263;48.146;11.440;2023-07-31T11:37:53;95481.13;;;35.93;23.08
70684;BME280;58263;48.146;11.440;2023-07-31T11:40:19;95473.06;;;36.20;23.05
70684;BME280;58263;48.146;11.440;2023-07-31T11:42:45;95473.19;;;37.40;21.34
70684;BME280;58263;48.146;11.440;2023-07-31T11:45:10;95455.41;;;38.95;20.71
70684;BME280;58263;48.146;11.440;2023-07-31T11:47:37;95443.00;;;39.67;19.77
70684;BME280;58263;48.146;11.440;2023-07-31T11:50:04;95454.91;;;40.76;19.57
70684;BME280;58263;48.146;11.440;2023-07-31T11:52:32;95451.16;;;40.26;18.36
70684;BME280;58263;48.146;11.440;2023-07-31T11:54:59;95447.47;;;39.17;19.33
70684;BME280;58263;48.146;11.440;2023-07-31T11:57:25;95447.75;;;40.34;18.67
70684;BME280;58263;48.146;11.440;2023-07-31T11:59:51;95435.09;;;40.99;18.35
70684;BME280;58263;48.146;11.440;2023-07-31T12:02:18;95438.28;;;41.18;16.72
70684;BME280;58263;48.146;11.440;2023-07-31T12:04:44;95436.75;;;40.60;17.78
70684;BME280;58263;48.146;11.440;2023-07-31T12:07:10;95439.13;;;38.55;18.90
70684;BME280;58263;48.146;11.440;2023-07-31T12:09:37;95419.22;;;40.89;18.50
70684;BME280;58263;48.146;11.440;2023-07-31T12:12:08;95431.59;;;40.38;18.38
70684;BME280;58263;48.146;11.440;2023-07-31T12:14:34;95417.13;;;37.92;19.17
70684;BME280;58263;48.146;11.440;2023-07-31T12:17:04;95419.16;;;36.27;20.42
70684;BME280;58263;48.146;11.440;2023-07-31T12:19:30;95406.25;;;35.55;21.90
70684;BME280;58263;48.146;11.440;2023-07-31T12:21:59;95395.13;;;34.65;22.75
70684;BME280;58263;48.146;11.440;2023-07-31T12:24:26;95399.53;;;34.84;23.68
70684;BME280;58263;48.146;11.440;2023-07-31T12:26:51;95392.34;;;34.76;22.60
70684;BME280;58263;48.146;11.440;2023-07-31T12:29:17;95397.41;;;34.27;23.94
70684;BME280;58263;48.146;11.440;2023-07-31T12:31:43;95389.63;;;33.69;25.03
70684;BME280;58263;48.146;11.440;2023-07-31T12:34:18;95387.66;;;33.74;24.99
70684;BME280;58263;48.146;11.440;2023-07-31T12:36:44;95379.97;;;33.49;26.19
70684;BME280;58263;48.146;11.440;2023-07-31T12:39:09;95374.63;;;33.92;25.24
70684;BME280;58263;48.146;11.440;2023-07-31T12:41:35;95377.94;;;32.08;27.15
70684;BME280;58263;48.146;11.440;2023-07-31T12:44:01;95370.34;;;32.39;27.29
70684;BME280;58263;48.146;11.440;2023-07-31T12:46:26;95371.88;;;32.74;27.21
70684;BME280;58263;48.146;11.440;2023-07-31T12:48:51;95375.63;;;35.37;24.14
70684;BME280;58263;48.146;11.440;2023-07-31T12:51:16;95365.84;;;37.19;21.72
70684;BME280;58263;48.146;11.440;2023-07-31T12:53:42;95373.22;;;38.98;19.94
70684;BME280;58263;48.146;11.440;2023-07-31T12:56:07;95358.31;;;38.23;20.26